sensor_id;sensor_type;location;lat;lon;timestamp;pressure;altitude;pressure_sealevel;temperature;humidity
74722;BME280;63470;49.826;6.740;2022-10-20T00:01:04;100354.73;;;12.27;68.33
74722;BME280;63470;49.826;6.740;2022-10-20T00:03:38;100352.25;;;12.27;68.30
74722;BME280;63470;49.826;6.740;2022-10-20T00:06:18;100351.44;;;12.26;68.30
74722;BME280;63470;49.826;6.740;2022-10-20T00:08:36;100349.11;;;12.27;68.29
74722;BME280;63470;49.826;6.740;2022-10-20T00:11:13;100347.66;;;12.29;68.27
74722;BME280;63470;49.826;6.740;2022-10-20T00:13:38;100337.36;;;12.28;68.26
74722;BME280;63470;49.826;6.740;2022-10-20T00:16:08;100333.80;;;12.28;68.26
74722;BME280;63470;49.826;6.740;2022-10-20T00:18:39;100330.03;;;12.30;68.20
74722;BME280;63470;49.826;6.740;2022-10-20T00:21:13;100328.88;;;12.29;68.21
74722;BME280;63470;49.826;6.740;2022-10-20T00:23:44;100332.64;;;12.28;68.23
74722;BME280;63470;49.826;6.740;2022-10-20T00:26:16;100325.53;;;12.27;68.25
74722;BME280;63470;49.826;6.740;2022-10-20T00:28:43;100323.75;;;12.26;68.27
74722;BME280;63470;49.826;6.740;2022-10-20T00:31:13;100319.24;;;12.24;68.29
74722;BME280;63470;49.826;6.740;2022-10-20T00:33:44;100318.17;;;12.23;68.33
74722;BME280;63470;49.826;6.740;2022-10-20T00:36:17;100308.98;;;12.24;68.33
74722;BME280;63470;49.826;6.740;2022-10-20T00:38:42;100306.79;;;12.26;68.31
74722;BME280;63470;49.826;6.740;2022-10-20T00:41:13;100316.97;;;12.29;68.26
74722;BME280;63470;49.826;6.740;2022-10-20T00:43:47;100322.21;;;12.32;68.22
74722;BME280;63470;49.826;6.740;2022-10-20T00:46:16;100317.00;;;12.32;68.20
74722;BME280;63470;49.826;6.740;2022-10-20T00:48:46;100318.08;;;12.31;68.22
74722;BME280;63470;49.826;6.740;2022-10-20T00:51:17;100318.53;;;12.30;68.23
74722;BME280;63470;49.826;6.740;2022-10-20T00:53:43;100305.84;;;12.27;68.25
74722;BME280;63470;49.826;6.740;2022-10-20T00:56:13;100308.91;;;12.27;68.22
74722;BME280;63470;49.826;6.740;2022-10-20T00:58:52;100317.30;;;12.28;68.21
74722;BME280;63470;49.826;6.740;2022-10-20T01:01:15;100313.70;;;12.28;68.22
74722;BME280;63470;49.826;6.740;2022-10-20T01:03:48;100315.27;;;12.27;68.22
74722;BME280;63470;49.826;6.740;2022-10-20T01:06:19;100307.03;;;12.26;68.24
74722;BME280;63470;49.826;6.740;2022-10-20T01:08:46;100300.92;;;12.24;68.23
74722;BME280;63470;49.826;6.740;2022-10-20T01:16:31;100288.72;;;12.23;68.23
74722;BME280;63470;49.826;6.740;2022-10-20T01:19:01;100290.49;;;12.26;68.20
74722;BME280;63470;49.826;6.740;2022-10-20T01:31:30;100276.55;;;12.27;68.18
74722;BME280;63470;49.826;6.740;2022-10-20T01:33:58;100271.17;;;12.27;68.17
74722;BME280;63470;49.826;6.740;2022-10-20T01:36:37;100269.02;;;12.27;68.16
74722;BME280;63470;49.826;6.740;2022-10-20T01:38:56;100271.62;;;12.28;68.12
74722;BME280;63470;49.826;6.740;2022-10-20T01:41:41;100274.16;;;12.27;68.17
74722;BME280;63470;49.826;6.740;2022-10-20T01:43:55;100270.09;;;12.24;68.23
74722;BME280;63470;49.826;6.740;2022-10-20T01:46:26;100263.98;;;12.22;68.26
74722;BME280;63470;49.826;6.740;2022-10-20T01:48:54;100267.46;;;12.22;68.28
74722;BME280;63470;49.826;6.740;2022-10-20T01:51:30;100265.84;;;12.22;68.28
74722;BME280;63470;49.826;6.740;2022-10-20T01:53:55;100266.14;;;12.22;68.25
74722;BME280;63470;49.826;6.740;2022-10-20T01:56:37;100266.00;;;12.22;68.27
74722;BME280;63470;49.826;6.740;2022-10-20T01:59:16;100266.17;;;12.22;68.28
74722;BME280;63470;49.826;6.740;2022-10-20T02:01:49;100261.46;;;12.21;68.29
74722;BME280;63470;49.826;6.740;2022-10-20T02:04:00;100258.98;;;12.21;68.26
74722;BME280;63470;49.826;6.740;2022-10-20T02:06:46;100252.48;;;12.23;68.24
74722;BME280;63470;49.826;6.740;2022-10-20T02:09:03;100252.14;;;12.24;68.23
74722;BME280;63470;49.826;6.740;2022-10-20T02:14:04;100245.85;;;12.27;68.22
74722;BME280;63470;49.826;6.740;2022-10-20T02:16:36;100241.01;;;12.29;68.18
74722;BME280;63470;49.826;6.740;2022-10-20T02:19:03;100236.03;;;12.33;68.08
74722;BME280;63470;49.826;6.740;2022-10-20T02:21:37;100235.24;;;12.35;68.07
74722;BME280;63470;49.826;6.740;2022-10-20T02:24:05;100232.77;;;12.35;68.08
74722;BME280;63470;49.826;6.740;2022-10-20T02:26:36;100227.09;;;12.37;68.07
74722;BME280;63470;49.826;6.740;2022-10-20T02:29:10;100228.33;;;12.37;68.06
74722;BME280;63470;49.826;6.740;2022-10-20T02:31:34;100225.52;;;12.38;68.08
74722;BME280;63470;49.826;6.740;2022-10-20T02:34:07;100218.55;;;12.38;68.07
74722;BME280;63470;49.826;6.740;2022-10-20T02:36:38;100217.44;;;12.39;68.06
74722;BME280;63470;49.826;6.740;2022-10-20T02:39:05;100223.69;;;12.40;68.07
74722;BME280;63470;49.826;6.740;2022-10-20T02:41:40;100215.07;;;12.42;68.09
74722;BME280;63470;49.826;6.740;2022-10-20T02:44:06;100206.58;;;12.43;68.06
74722;BME280;63470;49.826;6.740;2022-10-20T02:46:41;100209.18;;;12.46;68.01
74722;BME280;63470;49.826;6.740;2022-10-20T02:49:11;100204.59;;;12.47;68.03
74722;BME280;63470;49.826;6.740;2022-10-20T02:51:37;100204.25;;;12.50;67.99
74722;BME280;63470;49.826;6.740;2022-10-20T02:54:07;100201.84;;;12.52;67.97
74722;BME280;63470;49.826;6.740;2022-10-20T02:56:38;100189.70;;;12.54;68.00
74722;BME280;63470;49.826;6.740;2022-10-20T02:59:12;100182.28;;;12.55;68.03
74722;BME280;63470;49.826;6.740;2022-10-20T03:01:39;100181.25;;;12.56;68.04
74722;BME280;63470;49.826;6.740;2022-10-20T03:04:09;100175.24;;;12.56;68.07
74722;BME280;63470;49.826;6.740;2022-10-20T03:06:40;100184.14;;;12.57;68.05
74722;BME280;63470;49.826;6.740;2022-10-20T03:09:10;100178.23;;;12.55;68.08
74722;BME280;63470;49.826;6.740;2022-10-20T03:11:43;100171.61;;;12.55;68.06
74722;BME280;63470;49.826;6.740;2022-10-20T03:14:11;100168.97;;;12.52;68.07
74722;BME280;63470;49.826;6.740;2022-10-20T03:16:47;100168.70;;;12.49;68.09
74722;BME280;63470;49.826;6.740;2022-10-20T03:19:12;100167.97;;;12.45;68.12
74722;BME280;63470;49.826;6.740;2022-10-20T03:21:43;100175.36;;;12.41;68.22
74722;BME280;63470;49.826;6.740;2022-10-20T03:24:13;100170.73;;;12.37;68.29
74722;BME280;63470;49.826;6.740;2022-10-20T03:26:44;100170.09;;;12.33;68.31
74722;BME280;63470;49.826;6.740;2022-10-20T03:29:14;100158.77;;;12.29;68.34
74722;BME280;63470;49.826;6.740;2022-10-20T03:31:45;100149.34;;;12.25;68.38
74722;BME280;63470;49.826;6.740;2022-10-20T03:34:15;100150.27;;;12.21;68.42
74722;BME280;63470;49.826;6.740;2022-10-20T03:36:46;100147.51;;;12.19;68.43
74722;BME280;63470;49.826;6.740;2022-10-20T03:39:16;100145.11;;;12.19;68.39
74722;BME280;63470;49.826;6.740;2022-10-20T03:41:46;100147.06;;;12.17;68.41
74722;BME280;63470;49.826;6.740;2022-10-20T03:44:17;100150.78;;;12.20;68.38
74722;BME280;63470;49.826;6.740;2022-10-20T03:46:52;100150.85;;;12.21;68.36
74722;BME280;63470;49.826;6.740;2022-10-20T03:49:23;100152.26;;;12.21;68.38
74722;BME280;63470;49.826;6.740;2022-10-20T03:51:53;100152.22;;;12.19;68.40
74722;BME280;63470;49.826;6.740;2022-10-20T03:54:21;100150.28;;;12.18;68.44
74722;BME280;63470;49.826;6.740;2022-10-20T03:56:50;100144.53;;;12.18;68.41
74722;BME280;63470;49.826;6.740;2022-10-20T03:59:25;100148.67;;;12.18;68.38
74722;BME280;63470;49.826;6.740;2022-10-20T04:01:50;100152.88;;;12.19;68.32
74722;BME280;63470;49.826;6.740;2022-10-20T04:04:21;100154.91;;;12.18;68.32
74722;BME280;63470;49.826;6.740;2022-10-20T04:06:51;100146.53;;;12.15;68.37
74722;BME280;63470;49.826;6.740;2022-10-20T04:09:22;100145.18;;;12.12;68.44
74722;BME280;63470;49.826;6.740;2022-10-20T04:11:52;100148.94;;;12.12;68.44
74722;BME280;63470;49.826;6.740;2022-10-20T04:14:22;100144.07;;;12.10;68.43
74722;BME280;63470;49.826;6.740;2022-10-20T04:16:53;100146.22;;;12.10;68.39
74722;BME280;63470;49.826;6.740;2022-10-20T04:19:28;100144.36;;;12.08;68.39
74722;BME280;63470;49.826;6.740;2022-10-20T04:21:56;100146.31;;;12.07;68.38
74722;BME280;63470;49.826;6.740;2022-10-20T04:24:26;100138.91;;;12.05;68.40
74722;BME280;63470;49.826;6.740;2022-10-20T04:26:57;100133.09;;;12.03;68.45
74722;BME280;63470;49.826;6.740;2022-10-20T04:29:25;100127.64;;;11.99;68.48
74722;BME280;63470;49.826;6.740;2022-10-20T04:31:56;100133.39;;;11.97;68.47
74722;BME280;63470;49.826;6.740;2022-10-20T04:34:27;100131.04;;;11.95;68.49
74722;BME280;63470;49.826;6.740;2022-10-20T04:36:59;100129.56;;;11.94;68.51
74722;BME280;63470;49.826;6.740;2022-10-20T04:39:31;100121.54;;;11.95;68.53
74722;BME280;63470;49.826;6.740;2022-10-20T04:42:00;100131.99;;;11.96;68.52
74722;BME280;63470;49.826;6.740;2022-10-20T04:44:29;100119.88;;;11.99;68.46
74722;BME280;63470;49.826;6.740;2022-10-20T04:47:00;100123.88;;;12.00;68.38
74722;BME280;63470;49.826;6.740;2022-10-20T04:49:30;100130.33;;;12.00;68.39
74722;BME280;63470;49.826;6.740;2022-10-20T04:52:01;100130.54;;;11.99;68.42
74722;BME280;63470;49.826;6.740;2022-10-20T04:54:31;100117.59;;;11.97;68.45
74722;BME280;63470;49.826;6.740;2022-10-20T04:57:05;100116.91;;;11.95;68.48
74722;BME280;63470;49.826;6.740;2022-10-20T04:59:33;100119.92;;;11.94;68.48
74722;BME280;63470;49.826;6.740;2022-10-20T05:02:10;100114.84;;;11.91;68.50
74722;BME280;63470;49.826;6.740;2022-10-20T05:04:37;100116.48;;;11.88;68.54
74722;BME280;63470;49.826;6.740;2022-10-20T05:07:07;100118.53;;;11.89;68.53
74722;BME280;63470;49.826;6.740;2022-10-20T05:09:38;100127.92;;;11.90;68.50
74722;BME280;63470;49.826;6.740;2022-10-20T05:12:08;100132.59;;;11.89;68.51
74722;BME280;63470;49.826;6.740;2022-10-20T05:14:39;100130.86;;;11.88;68.53
74722;BME280;63470;49.826;6.740;2022-10-20T05:17:09;100134.12;;;11.90;68.53
74722;BME280;63470;49.826;6.740;2022-10-20T05:19:36;100149.62;;;11.92;68.51
74722;BME280;63470;49.826;6.740;2022-10-20T05:22:07;100141.92;;;11.94;68.49
74722;BME280;63470;49.826;6.740;2022-10-20T05:24:37;100123.42;;;11.99;68.51
74722;BME280;63470;49.826;6.740;2022-10-20T05:27:07;100118.16;;;12.05;68.44
74722;BME280;63470;49.826;6.740;2022-10-20T05:29:38;100106.81;;;12.08;68.37
74722;BME280;63470;49.826;6.740;2022-10-20T05:32:09;100094.89;;;12.10;68.35
74722;BME280;63470;49.826;6.740;2022-10-20T05:34:39;100093.23;;;12.12;68.33
74722;BME280;63470;49.826;6.740;2022-10-20T05:37:09;100094.00;;;12.15;68.29
74722;BME280;63470;49.826;6.740;2022-10-20T05:39:40;100080.84;;;12.18;68.26
74722;BME280;63470;49.826;6.740;2022-10-20T05:42:15;100087.38;;;12.18;68.24
74722;BME280;63470;49.826;6.740;2022-10-20T05:44:41;100097.18;;;12.17;68.25
74722;BME280;63470;49.826;6.740;2022-10-20T05:47:16;100078.98;;;12.16;68.28
74722;BME280;63470;49.826;6.740;2022-10-20T05:49:41;100076.96;;;12.15;68.29
74722;BME280;63470;49.826;6.740;2022-10-20T05:52:12;100084.38;;;12.14;68.33
74722;BME280;63470;49.826;6.740;2022-10-20T05:54:42;100094.80;;;12.12;68.39
74722;BME280;63470;49.826;6.740;2022-10-20T05:57:13;100088.48;;;12.11;68.44
74722;BME280;63470;49.826;6.740;2022-10-20T05:59:43;100091.45;;;12.11;68.44
74722;BME280;63470;49.826;6.740;2022-10-20T06:02:13;100094.68;;;12.11;68.46
74722;BME280;63470;49.826;6.740;2022-10-20T06:04:44;100097.45;;;12.12;68.42
74722;BME280;63470;49.826;6.740;2022-10-20T06:07:17;100096.50;;;12.11;68.42
74722;BME280;63470;49.826;6.740;2022-10-20T06:09:48;100091.88;;;12.11;68.44
74722;BME280;63470;49.826;6.740;2022-10-20T06:12:16;100091.92;;;12.09;68.46
74722;BME280;63470;49.826;6.740;2022-10-20T06:14:49;100098.38;;;12.05;68.51
74722;BME280;63470;49.826;6.740;2022-10-20T06:17:21;100099.02;;;12.02;68.56
74722;BME280;63470;49.826;6.740;2022-10-20T06:19:52;100104.81;;;11.99;68.60
74722;BME280;63470;49.826;6.740;2022-10-20T06:22:18;100097.05;;;11.99;68.63
74722;BME280;63470;49.826;6.740;2022-10-20T06:24:48;100095.05;;;11.99;68.61
74722;BME280;63470;49.826;6.740;2022-10-20T06:27:19;100094.72;;;12.02;68.57
74722;BME280;63470;49.826;6.740;2022-10-20T06:29:49;100096.57;;;12.04;68.51
74722;BME280;63470;49.826;6.740;2022-10-20T06:32:20;100089.11;;;12.09;68.46
74722;BME280;63470;49.826;6.740;2022-10-20T06:34:50;100092.19;;;12.14;68.38
74722;BME280;63470;49.826;6.740;2022-10-20T06:37:20;100086.90;;;12.21;68.32
74722;BME280;63470;49.826;6.740;2022-10-20T06:39:51;100093.40;;;12.30;68.23
74722;BME280;63470;49.826;6.740;2022-10-20T06:42:26;100074.23;;;12.38;68.19
74722;BME280;63470;49.826;6.740;2022-10-20T06:44:54;100073.81;;;12.48;68.13
74722;BME280;63470;49.826;6.740;2022-10-20T06:47:24;100080.00;;;12.58;68.05
74722;BME280;63470;49.826;6.740;2022-10-20T06:49:55;100079.66;;;12.66;68.00
74722;BME280;63470;49.826;6.740;2022-10-20T06:52:27;100076.12;;;12.75;67.95
74722;BME280;63470;49.826;6.740;2022-10-20T06:54:54;100076.31;;;12.83;67.89
74722;BME280;63470;49.826;6.740;2022-10-20T06:57:25;100076.59;;;12.91;67.86
74722;BME280;63470;49.826;6.740;2022-10-20T06:59:55;100087.53;;;13.00;67.82
74722;BME280;63470;49.826;6.740;2022-10-20T07:02:26;100087.78;;;13.04;67.81
74722;BME280;63470;49.826;6.740;2022-10-20T07:04:56;100087.20;;;13.10;67.81
74722;BME280;63470;49.826;6.740;2022-10-20T07:07:27;100089.18;;;13.16;67.80
74722;BME280;63470;49.826;6.740;2022-10-20T07:09:57;100093.77;;;13.23;67.84
74722;BME280;63470;49.826;6.740;2022-10-20T07:12:28;100084.53;;;13.30;67.77
74722;BME280;63470;49.826;6.740;2022-10-20T07:15:03;100081.87;;;13.36;67.70
74722;BME280;63470;49.826;6.740;2022-10-20T07:17:34;100096.54;;;13.45;67.70
74722;BME280;63470;49.826;6.740;2022-10-20T07:20:05;100108.67;;;13.55;67.65
74722;BME280;63470;49.826;6.740;2022-10-20T07:22:33;100103.13;;;13.65;67.66
74722;BME280;63470;49.826;6.740;2022-10-20T07:25:09;100101.67;;;13.75;67.65
74722;BME280;63470;49.826;6.740;2022-10-20T07:27:32;100092.48;;;13.82;67.59
74722;BME280;63470;49.826;6.740;2022-10-20T07:30:08;100093.59;;;13.89;67.59
74722;BME280;63470;49.826;6.740;2022-10-20T07:32:36;100087.61;;;13.94;67.61
74722;BME280;63470;49.826;6.740;2022-10-20T07:35:07;100095.83;;;13.97;67.65
74722;BME280;63470;49.826;6.740;2022-10-20T07:37:34;100100.91;;;13.99;67.70
74722;BME280;63470;49.826;6.740;2022-10-20T07:40:10;100096.45;;;14.00;67.75
74722;BME280;63470;49.826;6.740;2022-10-20T07:42:41;100090.17;;;14.02;67.75
74722;BME280;63470;49.826;6.740;2022-10-20T07:45:07;100101.73;;;14.07;67.78
74722;BME280;63470;49.826;6.740;2022-10-20T07:47:40;100097.98;;;14.15;67.75
74722;BME280;63470;49.826;6.740;2022-10-20T07:50:09;100094.17;;;14.24;67.66
74722;BME280;63470;49.826;6.740;2022-10-20T07:52:37;100091.73;;;14.32;67.54
74722;BME280;63470;49.826;6.740;2022-10-20T07:55:08;100075.73;;;14.36;67.47
74722;BME280;63470;49.826;6.740;2022-10-20T07:57:38;100092.79;;;14.40;67.43
74722;BME280;63470;49.826;6.740;2022-10-20T08:00:14;100101.97;;;14.45;67.38
74722;BME280;63470;49.826;6.740;2022-10-20T08:02:45;100107.81;;;14.56;67.33
74722;BME280;63470;49.826;6.740;2022-10-20T08:05:10;100110.20;;;14.69;67.28
74722;BME280;63470;49.826;6.740;2022-10-20T08:07:43;100112.91;;;14.83;67.18
74722;BME280;63470;49.826;6.740;2022-10-20T08:10:15;100123.46;;;14.94;67.09
74722;BME280;63470;49.826;6.740;2022-10-20T08:12:44;100114.45;;;15.04;67.01
74722;BME280;63470;49.826;6.740;2022-10-20T08:15:11;100104.25;;;15.12;67.01
74722;BME280;63470;49.826;6.740;2022-10-20T08:17:42;100092.56;;;15.16;67.00
74722;BME280;63470;49.826;6.740;2022-10-20T08:20:15;100102.22;;;15.18;67.04
74722;BME280;63470;49.826;6.740;2022-10-20T08:22:46;100110.41;;;15.23;67.03
74722;BME280;63470;49.826;6.740;2022-10-20T08:25:18;100112.81;;;15.28;66.95
74722;BME280;63470;49.826;6.740;2022-10-20T08:27:44;100107.16;;;15.30;67.01
74722;BME280;63470;49.826;6.740;2022-10-20T08:30:18;100115.66;;;15.32;67.09
74722;BME280;63470;49.826;6.740;2022-10-20T08:32:49;100117.09;;;15.33;67.08
74722;BME280;63470;49.826;6.740;2022-10-20T08:35:20;100115.50;;;15.39;67.06
74722;BME280;63470;49.826;6.740;2022-10-20T08:37:46;100119.83;;;15.57;67.00
74722;BME280;63470;49.826;6.740;2022-10-20T08:40:23;100122.56;;;15.78;66.89
74722;BME280;63470;49.826;6.740;2022-10-20T08:42:48;100111.62;;;16.00;66.70
74722;BME280;63470;49.826;6.740;2022-10-20T08:45:23;100111.28;;;16.19;66.51
74722;BME280;63470;49.826;6.740;2022-10-20T08:47:51;100103.86;;;16.31;66.40
74722;BME280;63470;49.826;6.740;2022-10-20T08:50:21;100099.36;;;16.30;66.36
74722;BME280;63470;49.826;6.740;2022-10-20T08:52:54;100111.04;;;16.25;66.59
74722;BME280;63470;49.826;6.740;2022-10-20T08:55:30;100115.85;;;16.19;66.78
74722;BME280;63470;49.826;6.740;2022-10-20T08:57:56;100117.69;;;16.13;66.92
74722;BME280;63470;49.826;6.740;2022-10-20T09:00:22;100116.95;;;16.10;67.03
74722;BME280;63470;49.826;6.740;2022-10-20T09:02:53;100116.04;;;16.04;67.03
74722;BME280;63470;49.826;6.740;2022-10-20T09:05:26;100113.45;;;15.96;67.14
74722;BME280;63470;49.826;6.740;2022-10-20T09:07:53;100110.83;;;15.91;67.26
74722;BME280;63470;49.826;6.740;2022-10-20T09:10:30;100113.52;;;15.88;67.36
74722;BME280;63470;49.826;6.740;2022-10-20T09:12:58;100110.43;;;15.93;67.29
74722;BME280;63470;49.826;6.740;2022-10-20T09:15:27;100091.99;;;16.04;67.09
74722;BME280;63470;49.826;6.740;2022-10-20T09:18:01;100101.70;;;16.15;66.91
74722;BME280;63470;49.826;6.740;2022-10-20T09:20:56;100090.82;;;16.26;66.77
74722;BME280;63470;49.826;6.740;2022-10-20T09:22:59;100089.31;;;16.38;66.66
74722;BME280;63470;49.826;6.740;2022-10-20T09:25:32;100087.19;;;16.48;66.51
74722;BME280;63470;49.826;6.740;2022-10-20T09:28:00;100082.53;;;16.52;66.49
74722;BME280;63470;49.826;6.740;2022-10-20T09:30:32;100084.95;;;16.52;66.51
74722;BME280;63470;49.826;6.740;2022-10-20T09:33:00;100078.24;;;16.51;66.61
74722;BME280;63470;49.826;6.740;2022-10-20T09:35:32;100078.23;;;16.49;66.74
74722;BME280;63470;49.826;6.740;2022-10-20T09:38:03;100065.98;;;16.55;66.74
74722;BME280;63470;49.826;6.740;2022-10-20T09:40:31;100037.45;;;16.62;66.64
74722;BME280;63470;49.826;6.740;2022-10-20T09:43:10;100040.27;;;16.66;66.66
74722;BME280;63470;49.826;6.740;2022-10-20T09:45:33;100045.95;;;16.69;66.64
74722;BME280;63470;49.826;6.740;2022-10-20T09:48:15;100048.25;;;16.70;66.67
74722;BME280;63470;49.826;6.740;2022-10-20T09:50:38;100049.59;;;16.68;66.62
74722;BME280;63470;49.826;6.740;2022-10-20T09:53:14;100062.38;;;16.63;66.77
74722;BME280;63470;49.826;6.740;2022-10-20T09:55:36;100078.11;;;16.64;66.84
74722;BME280;63470;49.826;6.740;2022-10-20T09:58:13;100082.52;;;16.69;66.75
74722;BME280;63470;49.826;6.740;2022-10-20T10:00:42;100093.65;;;16.74;66.68
74722;BME280;63470;49.826;6.740;2022-10-20T10:03:17;100093.91;;;16.78;66.63
74722;BME280;63470;49.826;6.740;2022-10-20T10:05:37;100094.17;;;16.79;66.62
74722;BME280;63470;49.826;6.740;2022-10-20T10:08:13;100099.14;;;16.82;66.66
74722;BME280;63470;49.826;6.740;2022-10-20T10:10:35;100095.23;;;16.85;66.66
74722;BME280;63470;49.826;6.740;2022-10-20T10:13:20;100093.83;;;16.83;66.65
74722;BME280;63470;49.826;6.740;2022-10-20T10:15:39;100090.85;;;16.79;66.75
74722;BME280;63470;49.826;6.740;2022-10-20T10:18:14;100090.24;;;16.76;66.81
74722;BME280;63470;49.826;6.740;2022-10-20T10:20:39;100086.73;;;16.76;66.80
74722;BME280;63470;49.826;6.740;2022-10-20T10:23:25;100094.52;;;16.73;66.81
74722;BME280;63470;49.826;6.740;2022-10-20T10:25:38;100087.88;;;16.65;66.84
74722;BME280;63470;49.826;6.740;2022-10-20T10:28:32;100078.31;;;16.61;66.90
74722;BME280;63470;49.826;6.740;2022-10-20T10:30:39;100077.22;;;16.59;66.92
74722;BME280;63470;49.826;6.740;2022-10-20T10:33:26;100076.48;;;16.62;66.93
74722;BME280;63470;49.826;6.740;2022-10-20T10:35:43;100071.70;;;16.61;66.88
74722;BME280;63470;49.826;6.740;2022-10-20T10:38:12;100084.58;;;16.56;66.96
74722;BME280;63470;49.826;6.740;2022-10-20T10:43:35;100089.44;;;16.47;67.07
74722;BME280;63470;49.826;6.740;2022-10-20T10:45:56;100094.94;;;16.48;67.10
74722;BME280;63470;49.826;6.740;2022-10-20T10:48:22;100087.98;;;16.49;67.11
74722;BME280;63470;49.826;6.740;2022-10-20T10:50:57;100082.62;;;16.49;67.06
74722;BME280;63470;49.826;6.740;2022-10-20T10:53:31;100084.86;;;16.45;67.04
74722;BME280;63470;49.826;6.740;2022-10-20T10:56:07;100071.98;;;16.35;67.03
74722;BME280;63470;49.826;6.740;2022-10-20T10:58:25;100055.42;;;16.20;66.98
74722;BME280;63470;49.826;6.740;2022-10-20T11:01:18;100032.80;;;16.08;67.03
74722;BME280;63470;49.826;6.740;2022-10-20T11:08:35;100053.49;;;15.77;67.17
74722;BME280;63470;49.826;6.740;2022-10-20T11:13:48;100050.49;;;15.75;67.22
74722;BME280;63470;49.826;6.740;2022-10-20T11:16:03;100040.09;;;15.73;67.29
74722;BME280;63470;49.826;6.740;2022-10-20T11:21:04;100019.53;;;15.65;67.33
74722;BME280;63470;49.826;6.740;2022-10-20T11:23:36;100015.66;;;15.62;67.38
74722;BME280;63470;49.826;6.740;2022-10-20T11:26:24;100016.81;;;15.60;67.37
74722;BME280;63470;49.826;6.740;2022-10-20T11:28:31;100016.88;;;15.61;67.35
74722;BME280;63470;49.826;6.740;2022-10-20T11:30:51;100010.73;;;15.66;67.25
74722;BME280;63470;49.826;6.740;2022-10-20T11:33:26;100006.07;;;15.77;67.13
74722;BME280;63470;49.826;6.740;2022-10-20T11:36:11;100009.05;;;15.85;67.00
74722;BME280;63470;49.826;6.740;2022-10-20T11:38:28;100010.82;;;15.88;66.85
74722;BME280;63470;49.826;6.740;2022-10-20T11:41:05;100004.48;;;15.87;66.86
74722;BME280;63470;49.826;6.740;2022-10-20T11:43:36;100020.62;;;15.89;66.89
74722;BME280;63470;49.826;6.740;2022-10-20T11:45:56;100021.38;;;15.93;66.86
74722;BME280;63470;49.826;6.740;2022-10-20T11:56:07;100022.69;;;16.27;66.63
74722;BME280;63470;49.826;6.740;2022-10-20T11:58:39;100024.07;;;16.41;66.55
74722;BME280;63470;49.826;6.740;2022-10-20T12:00:59;100021.61;;;16.52;66.51
74722;BME280;63470;49.826;6.740;2022-10-20T12:08:49;100014.31;;;16.85;66.19
74722;BME280;63470;49.826;6.740;2022-10-20T12:15:57;99996.06;;;17.19;65.88
74722;BME280;63470;49.826;6.740;2022-10-20T12:18:30;99999.77;;;17.24;65.86
74722;BME280;63470;49.826;6.740;2022-10-20T12:21:04;99993.86;;;17.22;65.94
74722;BME280;63470;49.826;6.740;2022-10-20T12:26:02;99983.39;;;17.14;66.21
74722;BME280;63470;49.826;6.740;2022-10-20T12:28:38;99979.42;;;17.13;66.26
74722;BME280;63470;49.826;6.740;2022-10-20T12:31:04;99977.92;;;17.11;66.24
74722;BME280;63470;49.826;6.740;2022-10-20T12:38:34;99979.62;;;17.05;66.42
74722;BME280;63470;49.826;6.740;2022-10-20T12:41:07;99979.47;;;16.97;66.59
74722;BME280;63470;49.826;6.740;2022-10-20T12:43:36;99976.61;;;16.90;66.72
74722;BME280;63470;49.826;6.740;2022-10-20T12:46:08;99989.30;;;16.86;66.82
74722;BME280;63470;49.826;6.740;2022-10-20T12:48:39;99980.88;;;16.86;66.85
74722;BME280;63470;49.826;6.740;2022-10-20T12:51:07;99974.96;;;16.89;66.81
74722;BME280;63470;49.826;6.740;2022-10-20T12:53:39;99971.50;;;16.92;66.75
74722;BME280;63470;49.826;6.740;2022-10-20T12:56:09;99973.42;;;16.94;66.73
74722;BME280;63470;49.826;6.740;2022-10-20T12:58:37;99973.33;;;16.99;66.69
74722;BME280;63470;49.826;6.740;2022-10-20T13:01:10;99976.19;;;17.06;66.59
74722;BME280;63470;49.826;6.740;2022-10-20T13:03:42;99976.83;;;17.07;66.53
74722;BME280;63470;49.826;6.740;2022-10-20T13:09:10;99978.06;;;16.96;66.71
74722;BME280;63470;49.826;6.740;2022-10-20T13:13:54;99966.65;;;16.76;66.91
74722;BME280;63470;49.826;6.740;2022-10-20T13:16:15;99964.30;;;16.67;66.97
74722;BME280;63470;49.826;6.740;2022-10-20T13:18:44;99959.83;;;16.61;66.98
74722;BME280;63470;49.826;6.740;2022-10-20T13:21:27;99957.16;;;16.54;66.96
74722;BME280;63470;49.826;6.740;2022-10-20T13:23:43;99956.88;;;16.49;67.00
74722;BME280;63470;49.826;6.740;2022-10-20T13:26:27;99958.85;;;16.47;67.00
74722;BME280;63470;49.826;6.740;2022-10-20T13:28:46;99958.16;;;16.46;66.93
74722;BME280;63470;49.826;6.740;2022-10-20T13:34:00;99958.92;;;16.42;66.93
74722;BME280;63470;49.826;6.740;2022-10-20T13:39:11;99946.64;;;16.33;67.01
74722;BME280;63470;49.826;6.740;2022-10-20T13:41:45;99937.48;;;16.28;67.08
74722;BME280;63470;49.826;6.740;2022-10-20T13:43:57;99937.68;;;16.21;67.12
74722;BME280;63470;49.826;6.740;2022-10-20T13:46:26;99936.80;;;16.18;67.21
74722;BME280;63470;49.826;6.740;2022-10-20T13:48:55;99939.25;;;16.20;67.29
74722;BME280;63470;49.826;6.740;2022-10-20T13:51:22;99928.19;;;16.23;67.23
74722;BME280;63470;49.826;6.740;2022-10-20T13:53:47;99922.29;;;16.26;67.17
74722;BME280;63470;49.826;6.740;2022-10-20T13:56:28;99925.00;;;16.29;67.14
74722;BME280;63470;49.826;6.740;2022-10-20T13:59:02;99927.34;;;16.34;67.12
74722;BME280;63470;49.826;6.740;2022-10-20T14:01:27;99921.46;;;16.38;67.06
74722;BME280;63470;49.826;6.740;2022-10-20T14:03:46;99922.57;;;16.40;67.00
74722;BME280;63470;49.826;6.740;2022-10-20T14:06:34;99911.22;;;16.45;66.91
74722;BME280;63470;49.826;6.740;2022-10-20T14:08:49;99917.47;;;16.45;66.84
74722;BME280;63470;49.826;6.740;2022-10-20T14:11:18;99927.12;;;16.47;66.85